createdAt,value
2023-02-02T00:01:34.724Z,98324.56
2023-02-02T00:04:02.672Z,98323.00
2023-02-02T00:06:31.747Z,98321.13
2023-02-02T00:09:01.616Z,98325.06
2023-02-02T00:11:29.531Z,98315.84
2023-02-02T00:13:57.050Z,98317.97
2023-02-02T00:16:27.542Z,98316.03
2023-02-02T00:19:00.048Z,98308.34
2023-02-02T00:21:28.075Z,98306.78
2023-02-02T00:23:55.743Z,98302.56
2023-02-02T00:26:23.408Z,98306.28
2023-02-02T00:28:50.931Z,98309.72
2023-02-02T00:31:18.606Z,98308.06
2023-02-02T00:33:47.613Z,98311.25
2023-02-02T00:36:15.493Z,98306.47
2023-02-02T00:38:43.396Z,98303.91
2023-02-02T00:41:10.958Z,98307.06
2023-02-02T00:43:38.471Z,98303.63
2023-02-02T00:46:06.942Z,98311.25
2023-02-02T00:48:34.488Z,98309.72
2023-02-02T00:51:02.642Z,98312.06
2023-02-02T00:53:30.118Z,98308.34
2023-02-02T00:55:57.670Z,98309.72
2023-02-02T00:58:25.203Z,98306.78
2023-02-02T01:00:53.255Z,98314.72
2023-02-02T01:03:20.881Z,98317.91
2023-02-02T01:05:50.460Z,98309.72
2023-02-02T01:08:18.109Z,98308.06
2023-02-02T01:10:45.712Z,98316.66
2023-02-02T01:13:13.191Z,98313.56
2023-02-02T01:15:40.800Z,98320.50
2023-02-02T01:18:08.274Z,98314.44
2023-02-02T01:20:35.814Z,98321.34
2023-02-02T01:23:03.252Z,98324.03
2023-02-02T01:25:32.823Z,98324.63
2023-02-02T01:28:00.299Z,98321.97
2023-02-02T01:30:28.734Z,98316.16
2023-02-02T01:32:56.355Z,98323.38
2023-02-02T01:35:24.127Z,98321.97
2023-02-02T01:37:51.945Z,98300.28
2023-02-02T01:40:19.933Z,98316.78
2023-02-02T01:42:47.496Z,98321.03
2023-02-02T01:45:21.554Z,98328.00
2023-02-02T01:47:56.940Z,98317.91
2023-02-02T01:50:30.159Z,98313.25
2023-02-02T01:53:00.137Z,98316.00
2023-02-02T01:55:31.511Z,98319.44
2023-02-02T01:58:10.763Z,98316.44
2023-02-02T02:00:40.567Z,98319.44
2023-02-02T02:03:19.329Z,98316.50
2023-02-02T02:05:56.137Z,98313.56
2023-02-02T02:08:38.354Z,98316.50
2023-02-02T02:11:06.898Z,98309.94
2023-02-02T02:13:57.887Z,98308.03
2023-02-02T02:16:57.859Z,98315.34
2023-02-02T02:19:37.322Z,98315.13
2023-02-02T02:22:35.276Z,98315.94
2023-02-02T02:25:30.366Z,98316.50
2023-02-02T02:28:37.885Z,98306.41
2023-02-02T02:31:31.934Z,98314.84
2023-02-02T02:34:17.599Z,98321.31
2023-02-02T02:37:09.452Z,98316.81
2023-02-02T02:39:45.004Z,98315.31
2023-02-02T02:42:16.986Z,98307.38
2023-02-02T02:44:45.959Z,98318.06
2023-02-02T02:47:13.728Z,98315.44
2023-02-02T02:49:45.799Z,98316.00
2023-02-02T02:52:14.211Z,98318.72
2023-02-02T02:54:50.739Z,98313.91
2023-02-02T02:57:34.330Z,98316.78
2023-02-02T03:00:26.367Z,98324.44
2023-02-02T03:03:09.616Z,98324.25
2023-02-02T03:05:59.805Z,98323.38
2023-02-02T03:08:36.787Z,98327.44
2023-02-02T03:11:07.233Z,98322.81
2023-02-02T03:13:35.527Z,98322.84
2023-02-02T03:16:03.263Z,98322.63
2023-02-02T03:18:33.806Z,98336.09
2023-02-02T03:21:01.689Z,98332.41
2023-02-02T03:23:29.523Z,98325.50
2023-02-02T03:25:57.140Z,98326.34
2023-02-02T03:28:25.568Z,98334.03
2023-02-02T03:30:55.089Z,98336.69
2023-02-02T03:33:23.102Z,98339.91
2023-02-02T03:35:50.562Z,98334.09
2023-02-02T03:38:18.099Z,98343.34
2023-02-02T03:40:45.640Z,98322.47
2023-02-02T03:43:13.110Z,98348.13
2023-02-02T03:45:41.057Z,98332.78
2023-02-02T03:48:08.644Z,98344.66
2023-02-02T03:50:37.512Z,98345.41
2023-02-02T03:53:05.469Z,98343.31
2023-02-02T03:55:32.942Z,98344.91
2023-02-02T03:58:00.353Z,98342.47
2023-02-02T04:00:27.834Z,98345.69
2023-02-02T04:02:55.461Z,98332.47
2023-02-02T04:05:23.200Z,98343.03
2023-02-02T04:07:50.882Z,98345.94
2023-02-02T04:10:19.141Z,98355.69
2023-02-02T04:12:46.872Z,98353.50
2023-02-02T04:15:14.575Z,98349.78
2023-02-02T04:17:42.004Z,98350.97
2023-02-02T04:20:10.237Z,98349.25
2023-02-02T04:22:37.795Z,98335.84
2023-02-02T04:25:05.622Z,98348.94
2023-02-02T04:27:34.348Z,98345.47
2023-02-02T04:30:01.904Z,98345.16
2023-02-02T04:32:31.617Z,98337.69
2023-02-02T04:34:59.175Z,98343.38
2023-02-02T04:37:26.655Z,98346.56
2023-02-02T04:39:55.687Z,98341.94
2023-02-02T04:42:23.157Z,98342.44
2023-02-02T04:44:50.673Z,98336.19
2023-02-02T04:47:18.220Z,98342.97
2023-02-02T04:49:45.665Z,98349.38
2023-02-02T04:52:13.192Z,98359.09
2023-02-02T04:54:40.725Z,98359.38
2023-02-02T04:57:08.362Z,98353.69
2023-02-02T04:59:35.871Z,98358.47
2023-02-02T05:02:03.456Z,98356.19
2023-02-02T05:04:31.099Z,98353.66
2023-02-02T05:06:58.738Z,98343.06
2023-02-02T05:09:26.490Z,98359.97
2023-02-02T05:11:54.005Z,98366.00
2023-02-02T05:14:21.637Z,98361.28
2023-02-02T05:16:50.246Z,98363.88
2023-02-02T05:19:17.729Z,98351.94
2023-02-02T05:21:45.967Z,98362.13
2023-02-02T05:24:13.652Z,98370.81
2023-02-02T05:26:41.118Z,98366.59
2023-02-02T05:29:09.551Z,98363.16
2023-02-02T05:31:37.193Z,98358.50
2023-02-02T05:34:07.138Z,98363.22
2023-02-02T05:36:34.615Z,98367.31
2023-02-02T05:39:02.129Z,98360.28
2023-02-02T05:41:29.635Z,98360.78
2023-02-02T05:43:59.732Z,98364.53
2023-02-02T05:46:27.301Z,98362.44
2023-02-02T05:48:54.909Z,98363.19
2023-02-02T05:51:28.045Z,98366.44
2023-02-02T05:53:55.527Z,98363.44
2023-02-02T05:56:23.100Z,98363.19
2023-02-02T05:58:50.575Z,98361.34
2023-02-02T06:01:19.486Z,98359.66
2023-02-02T06:03:47.012Z,98363.47
2023-02-02T06:06:14.842Z,98355.34
2023-02-02T06:08:42.315Z,98353.50
2023-02-02T06:11:18.009Z,98363.59
2023-02-02T06:13:46.232Z,98356.97
2023-02-02T06:16:14.183Z,98363.16
2023-02-02T06:18:41.833Z,98348.84
2023-02-02T06:21:10.346Z,98354.63
2023-02-02T06:23:38.010Z,98359.88
2023-02-02T06:26:05.879Z,98360.09
2023-02-02T06:28:33.397Z,98354.59
2023-02-02T06:31:11.079Z,98362.16
2023-02-02T06:33:45.543Z,98365.00
2023-02-02T06:36:15.887Z,98357.38
2023-02-02T06:38:43.370Z,98370.75
2023-02-02T06:41:10.792Z,98364.94
2023-02-02T06:43:40.867Z,98368.44
2023-02-02T06:46:10.152Z,98375.06
2023-02-02T06:48:37.659Z,98368.91
2023-02-02T06:51:08.746Z,98378.25
2023-02-02T06:53:36.282Z,98366.16
2023-02-02T06:56:06.521Z,98372.34
2023-02-02T06:58:35.446Z,98373.81
2023-02-02T07:01:04.908Z,98371.34
2023-02-02T07:03:36.156Z,98380.97
2023-02-02T07:06:25.031Z,98369.03
2023-02-02T07:09:02.296Z,98372.66
2023-02-02T07:11:35.612Z,98370.03
2023-02-02T07:14:06.665Z,98358.75
2023-02-02T07:16:34.280Z,98363.38
2023-02-02T07:19:01.888Z,98368.91
2023-02-02T07:21:35.750Z,98365.81
2023-02-02T07:24:06.163Z,98365.91
2023-02-02T07:26:36.462Z,98368.63
2023-02-02T07:29:06.965Z,98364.06
2023-02-02T07:31:36.481Z,98367.66
2023-02-02T07:34:12.837Z,98353.69
2023-02-02T07:36:40.500Z,98368.88
2023-02-02T07:39:14.519Z,98361.47
2023-02-02T07:41:43.919Z,98368.06
2023-02-02T07:44:24.708Z,98368.78
2023-02-02T07:46:52.718Z,98363.56
2023-02-02T07:49:20.772Z,98366.53
2023-02-02T07:51:49.628Z,98348.41
2023-02-02T07:54:17.119Z,98350.09
2023-02-02T07:56:44.732Z,98350.44
2023-02-02T07:59:12.321Z,98338.53
2023-02-02T08:01:40.004Z,98342.00
2023-02-02T08:04:07.762Z,98333.22
2023-02-02T08:06:38.409Z,98345.13
2023-02-02T08:09:08.281Z,98337.94
2023-02-02T08:11:40.076Z,98341.47
2023-02-02T08:14:08.017Z,98327.31
2023-02-02T08:16:35.748Z,98338.06
2023-02-02T08:19:03.430Z,98331.06
2023-02-02T08:21:34.112Z,98333.94
2023-02-02T08:24:02.845Z,98324.66
2023-02-02T08:26:33.635Z,98317.53
2023-02-02T08:29:08.220Z,98322.75
2023-02-02T08:31:43.121Z,98334.94
2023-02-02T08:34:12.489Z,98332.72
2023-02-02T08:36:40.566Z,98327.91
2023-02-02T08:39:12.355Z,98331.28
2023-02-02T08:41:40.512Z,98325.41
2023-02-02T08:44:11.403Z,98326.19
2023-02-02T08:46:39.399Z,98318.81
2023-02-02T08:49:07.513Z,98322.34
2023-02-02T08:51:35.094Z,98311.69
2023-02-02T08:54:02.655Z,98317.59
2023-02-02T08:56:30.245Z,98320.50
2023-02-02T08:58:59.127Z,98309.94
2023-02-02T09:01:29.379Z,98308.88
2023-02-02T09:04:02.817Z,98302.00
2023-02-02T09:06:39.226Z,98311.94
2023-02-02T09:09:13.105Z,98315.16
2023-02-02T09:11:40.995Z,98294.75
2023-02-02T09:14:09.295Z,98300.97
2023-02-02T09:16:37.173Z,98301.66
2023-02-02T09:19:05.636Z,98296.31
2023-02-02T09:21:37.579Z,98287.84
2023-02-02T09:24:13.975Z,98288.78
2023-02-02T09:26:42.862Z,98286.78
2023-02-02T09:29:18.369Z,98290.72
2023-02-02T09:31:47.241Z,98286.31
2023-02-02T09:34:16.077Z,98298.28
2023-02-02T09:36:44.844Z,98288.38
2023-02-02T09:39:13.609Z,98295.75
2023-02-02T09:41:41.119Z,98289.13
2023-02-02T09:44:27.320Z,98293.97
2023-02-02T09:47:03.986Z,98289.56
2023-02-02T09:49:46.831Z,98293.31
2023-02-02T09:52:23.811Z,98290.31
2023-02-02T09:54:55.949Z,98289.56
2023-02-02T09:57:29.418Z,98292.16
2023-02-02T09:59:57.785Z,98282.97
2023-02-02T10:02:39.084Z,98290.75
2023-02-02T10:05:30.127Z,98286.63
2023-02-02T10:08:03.436Z,98283.72
2023-02-02T10:10:39.696Z,98287.75
2023-02-02T10:13:33.869Z,98290.81
2023-02-02T10:16:08.789Z,98286.50
2023-02-02T10:18:39.677Z,98289.63
2023-02-02T10:21:17.038Z,98298.06
2023-02-02T10:23:46.214Z,98301.34
2023-02-02T10:26:27.539Z,98286.06
2023-02-02T10:29:19.756Z,98288.47
2023-02-02T10:32:23.126Z,98293.94
2023-02-02T10:35:06.986Z,98288.22
2023-02-02T10:37:54.786Z,98282.44
2023-02-02T10:40:32.713Z,98286.38
2023-02-02T10:43:36.499Z,98289.59
2023-02-02T10:46:05.845Z,98297.78
2023-02-02T10:48:38.550Z,98287.63
2023-02-02T10:51:32.580Z,98302.75
2023-02-02T10:54:05.505Z,98295.53
2023-02-02T10:56:48.894Z,98302.59
2023-02-02T10:59:25.344Z,98296.16
2023-02-02T11:01:53.054Z,98303.38
2023-02-02T11:04:41.568Z,98283.38
2023-02-02T11:07:13.750Z,98298.38
2023-02-02T11:09:43.273Z,98292.13
2023-02-02T11:12:19.719Z,98296.16
2023-02-02T11:14:57.205Z,98297.31
2023-02-02T11:17:26.565Z,98301.97
2023-02-02T11:19:56.466Z,98300.75
2023-02-02T11:22:28.981Z,98295.00
2023-02-02T11:24:58.852Z,98294.91
2023-02-02T11:27:41.694Z,98303.53
2023-02-02T11:30:30.909Z,98294.25
2023-02-02T11:32:58.502Z,98296.84
2023-02-02T11:35:29.908Z,98299.81
2023-02-02T11:38:09.313Z,98295.00
2023-02-02T11:40:44.235Z,98298.88
2023-02-02T11:43:23.051Z,98298.69
2023-02-02T11:46:18.617Z,98303.41
2023-02-02T11:48:57.786Z,98309.91
2023-02-02T11:51:27.543Z,98300.63
2023-02-02T11:54:39.558Z,98308.97
2023-02-02T11:57:11.109Z,98313.22
2023-02-02T11:59:40.932Z,98306.22
2023-02-02T12:02:20.828Z,98305.59
2023-02-02T12:04:50.051Z,98305.28
2023-02-02T12:07:47.956Z,98305.75
2023-02-02T12:10:24.874Z,98307.16
2023-02-02T12:13:13.664Z,98305.22
2023-02-02T12:16:03.989Z,98301.69
2023-02-02T12:18:44.942Z,98311.06
2023-02-02T12:21:26.123Z,98315.06
2023-02-02T12:24:41.301Z,98308.50
2023-02-02T12:27:24.959Z,98312.44
2023-02-02T12:30:25.094Z,98303.19
2023-02-02T12:33:21.805Z,98314.75
2023-02-02T12:35:49.261Z,98315.09
2023-02-02T12:38:55.843Z,98313.09
2023-02-02T12:42:01.162Z,98309.13
2023-02-02T12:44:37.659Z,98324.47
2023-02-02T12:47:32.399Z,98312.66
2023-02-02T12:50:56.814Z,98319.84
2023-02-02T12:53:40.588Z,98319.72
2023-02-02T12:56:29.376Z,98328.16
2023-02-02T12:59:46.196Z,98330.19
2023-02-02T13:02:43.871Z,98335.47
2023-02-02T13:05:23.622Z,98331.97
2023-02-02T13:08:05.630Z,98325.16
2023-02-02T13:10:39.300Z,98327.56
2023-02-02T13:13:18.788Z,98327.13
2023-02-02T13:15:59.747Z,98323.56
2023-02-02T13:18:31.856Z,98336.22
2023-02-02T13:21:05.849Z,98317.69
2023-02-02T13:23:37.636Z,98339.50
2023-02-02T13:26:16.624Z,98342.28
2023-02-02T13:29:25.672Z,98341.63
2023-02-02T13:31:56.199Z,98344.50
2023-02-02T13:34:44.701Z,98351.47
2023-02-02T13:38:12.217Z,98347.22
2023-02-02T13:40:43.381Z,98357.72
2023-02-02T13:44:01.929Z,98363.00
2023-02-02T13:46:43.926Z,98362.44
2023-02-02T13:49:25.350Z,98353.75
2023-02-02T13:52:11.167Z,98353.19
2023-02-02T13:54:53.494Z,98346.63
2023-02-02T13:57:45.526Z,98353.28
2023-02-02T14:00:15.673Z,98347.97
2023-02-02T14:02:46.231Z,98349.59
2023-02-02T14:05:33.810Z,98354.06
2023-02-02T14:08:12.920Z,98352.75
2023-02-02T14:10:45.508Z,98348.53
2023-02-02T14:13:32.976Z,98341.94
2023-02-02T14:16:05.116Z,98350.69
2023-02-02T14:18:54.570Z,98350.69
2023-02-02T14:21:34.424Z,98350.69
2023-02-02T14:24:04.414Z,98352.78
2023-02-02T14:26:43.405Z,98347.25
2023-02-02T14:29:30.479Z,98343.81
2023-02-02T14:32:23.794Z,98344.88
2023-02-02T14:34:55.650Z,98343.28
2023-02-02T14:37:29.094Z,98340.88
2023-02-02T14:40:06.370Z,98347.50
2023-02-02T14:43:10.781Z,98349.06
2023-02-02T14:45:42.449Z,98345.38
2023-02-02T14:48:20.917Z,98342.72
2023-02-02T14:51:00.746Z,98331.91
2023-02-02T14:53:28.915Z,98340.91
2023-02-02T14:56:02.708Z,98350.16
2023-02-02T14:58:35.629Z,98338.50
2023-02-02T15:01:06.502Z,98335.81
2023-02-02T15:03:53.427Z,98341.63
2023-02-02T15:06:29.985Z,98338.44
2023-02-02T15:09:28.635Z,98342.94
2023-02-02T15:12:02.355Z,98343.09
2023-02-02T15:14:32.547Z,98340.25
2023-02-02T15:17:12.895Z,98351.59
2023-02-02T15:19:45.534Z,98335.75
2023-02-02T15:22:36.741Z,98346.88
2023-02-02T15:25:20.960Z,98350.59
2023-02-02T15:28:11.956Z,98353.28
2023-02-02T15:30:44.610Z,98354.63
2023-02-02T15:33:31.978Z,98367.81
2023-02-02T15:36:11.058Z,98358.31
2023-02-02T15:38:42.238Z,98362.25
2023-02-02T15:41:47.692Z,98363.59
2023-02-02T15:44:27.704Z,98364.88
2023-02-02T15:46:58.226Z,98367.78
2023-02-02T15:49:35.381Z,98367.25
2023-02-02T15:52:35.673Z,98369.38
2023-02-02T15:55:03.489Z,98355.34
2023-02-02T15:57:36.966Z,98357.50
2023-02-02T16:00:25.226Z,98365.19
2023-02-02T16:03:15.473Z,98360.94
2023-02-02T16:05:49.128Z,98364.88
2023-02-02T16:08:38.143Z,98358.28
2023-02-02T16:11:21.789Z,98352.19
2023-02-02T16:14:14.454Z,98356.16
2023-02-02T16:16:42.065Z,98349.75
2023-02-02T16:19:09.673Z,98357.19
2023-02-02T16:21:44.314Z,98344.72
2023-02-02T16:24:17.656Z,98357.66
2023-02-02T16:26:45.931Z,98358.72
2023-02-02T16:29:18.778Z,98364.25
2023-02-02T16:31:48.596Z,98364.66
2023-02-02T16:34:49.402Z,98367.28
2023-02-02T16:37:22.896Z,98374.31
2023-02-02T16:39:52.208Z,98358.19
2023-02-02T16:42:31.960Z,98370.16
2023-02-02T16:45:01.135Z,98367.78
2023-02-02T16:47:32.866Z,98368.94
2023-02-02T16:50:10.163Z,98368.72
2023-02-02T16:53:03.890Z,98366.88
2023-02-02T16:55:49.551Z,98358.06
2023-02-02T16:58:22.065Z,98366.09
2023-02-02T17:01:18.191Z,98362.41
2023-02-02T17:03:56.629Z,98364.03
2023-02-02T17:06:51.796Z,98366.84
2023-02-02T17:09:44.054Z,98350.81
2023-02-02T17:12:35.333Z,98360.06
2023-02-02T17:15:34.660Z,98370.94
2023-02-02T17:18:04.732Z,98365.91
2023-02-02T17:20:34.883Z,98371.94
2023-02-02T17:23:07.158Z,98359.28
2023-02-02T17:25:45.647Z,98368.03
2023-02-02T17:28:17.153Z,98374.06
2023-02-02T17:30:47.787Z,98370.13
2023-02-02T17:33:17.230Z,98364.84
2023-02-02T17:35:54.714Z,98371.72
2023-02-02T17:38:24.268Z,98360.63
2023-02-02T17:40:54.502Z,98366.44
2023-02-02T17:43:22.355Z,98367.47
2023-02-02T17:45:50.910Z,98371.66
2023-02-02T17:48:21.021Z,98378.75
2023-02-02T17:50:48.701Z,98379.06
2023-02-02T17:53:21.452Z,98380.41
2023-02-02T17:55:50.331Z,98375.88
2023-02-02T17:58:18.283Z,98381.72
2023-02-02T18:00:54.320Z,98372.75
2023-02-02T18:03:26.621Z,98366.34
2023-02-02T18:05:54.472Z,98363.72
2023-02-02T18:08:22.182Z,98376.44
2023-02-02T18:10:50.007Z,98362.69
2023-02-02T18:13:31.888Z,98374.56
2023-02-02T18:16:05.923Z,98371.09
2023-02-02T18:18:33.517Z,98363.22
2023-02-02T18:21:01.152Z,98365.66
2023-02-02T18:23:29.481Z,98372.13
2023-02-02T18:25:57.088Z,98374.34
2023-02-02T18:28:24.664Z,98373.53
2023-02-02T18:30:52.332Z,98365.66
2023-02-02T18:33:20.404Z,98369.50
2023-02-02T18:35:48.363Z,98368.06
2023-02-02T18:38:29.194Z,98359.13
2023-02-02T18:40:57.904Z,98375.50
2023-02-02T18:43:25.581Z,98366.25
2023-02-02T18:46:06.522Z,98365.53
2023-02-02T18:48:34.170Z,98356.22
2023-02-02T18:51:06.453Z,98360.56
2023-02-02T18:53:34.634Z,98368.06
2023-02-02T18:56:06.887Z,98359.16
2023-02-02T18:58:40.487Z,98366.28
2023-02-02T19:01:16.615Z,98360.66
2023-02-02T19:03:49.249Z,98329.72
2023-02-02T19:06:36.462Z,98356.47
2023-02-02T19:09:05.540Z,98367.06
2023-02-02T19:11:45.336Z,98363.91
2023-02-02T19:14:17.305Z,98367.25
2023-02-02T19:16:48.992Z,98359.41
2023-02-02T19:19:24.433Z,98369.78
2023-02-02T19:21:56.521Z,98360.78
2023-02-02T19:24:29.179Z,98380.31
2023-02-02T19:26:57.051Z,98370.78
2023-02-02T19:29:30.739Z,98365.09
2023-02-02T19:32:07.844Z,98375.59
2023-02-02T19:34:36.331Z,98363.41
2023-02-02T19:37:26.177Z,98363.56
2023-02-02T19:40:21.535Z,98359.66
2023-02-02T19:43:22.566Z,98352.84
2023-02-02T19:45:54.235Z,98361.81
2023-02-02T19:48:39.566Z,98361.94
2023-02-02T19:51:45.391Z,98364.38
2023-02-02T19:54:28.304Z,98357.09
2023-02-02T19:57:13.498Z,98360.44
2023-02-02T19:59:43.640Z,98350.66
2023-02-02T20:02:44.077Z,98345.19
2023-02-02T20:05:12.018Z,98353.16
2023-02-02T20:07:41.677Z,98354.31
2023-02-02T20:10:28.812Z,98340.00
2023-02-02T20:12:57.578Z,98355.38
2023-02-02T20:15:33.779Z,98354.88
2023-02-02T20:18:24.588Z,98330.88
2023-02-02T20:20:57.668Z,98364.00
2023-02-02T20:23:46.153Z,98370.44
2023-02-02T20:26:35.348Z,98364.69
2023-02-02T20:29:17.660Z,98358.94
2023-02-02T20:31:46.776Z,98366.84
2023-02-02T20:34:28.341Z,98359.25
2023-02-02T20:37:23.145Z,98362.66
2023-02-02T20:39:54.196Z,98359.75
2023-02-02T20:42:22.921Z,98363.22
2023-02-02T20:44:50.993Z,98355.00
2023-02-02T20:47:19.144Z,98363.22
2023-02-02T20:49:47.551Z,98373.00
2023-02-02T20:52:23.551Z,98365.91
2023-02-02T20:54:52.438Z,98352.66
2023-02-02T20:57:20.119Z,98365.38
2023-02-02T20:59:47.569Z,98365.13
2023-02-02T21:02:19.611Z,98367.25
2023-02-02T21:04:48.815Z,98371.50
2023-02-02T21:07:17.777Z,98361.72
2023-02-02T21:09:47.036Z,98363.59
2023-02-02T21:12:15.044Z,98367.00
2023-02-02T21:14:45.176Z,98362.28
2023-02-02T21:17:15.744Z,98360.44
2023-02-02T21:19:44.292Z,98367.84
2023-02-02T21:22:12.847Z,98372.59
2023-02-02T21:24:40.724Z,98376.00
2023-02-02T21:27:09.192Z,98366.28
2023-02-02T21:29:37.195Z,98369.97
2023-02-02T21:32:05.367Z,98378.97
2023-02-02T21:34:33.290Z,98368.91
2023-02-02T21:37:00.944Z,98373.94
2023-02-02T21:39:32.355Z,98379.75
2023-02-02T21:42:09.235Z,98377.09
2023-02-02T21:44:52.750Z,98384.78
2023-02-02T21:47:31.520Z,98382.41
2023-02-02T21:50:22.976Z,98386.38
2023-02-02T21:52:50.507Z,98393.53
2023-02-02T21:55:34.941Z,98383.97
2023-02-02T21:58:25.967Z,98392.19
2023-02-02T22:00:57.885Z,98369.72
2023-02-02T22:03:35.270Z,98390.34
2023-02-02T22:06:13.149Z,98384.00
2023-02-02T22:08:40.712Z,98385.31
2023-02-02T22:11:31.892Z,98395.09
2023-02-02T22:14:15.406Z,98398.25
2023-02-02T22:16:45.482Z,98402.75
2023-02-02T22:19:27.809Z,98389.00
2023-02-02T22:22:16.055Z,98394.03
2023-02-02T22:24:46.136Z,98389.81
2023-02-02T22:27:25.604Z,98394.31
2023-02-02T22:30:01.187Z,98388.22
2023-02-02T22:32:28.800Z,98383.19
2023-02-02T22:34:56.278Z,98379.25
2023-02-02T22:37:23.933Z,98377.38
2023-02-02T22:39:51.375Z,98375.50
2023-02-02T22:42:18.915Z,98377.88
2023-02-02T22:44:46.795Z,98372.34
2023-02-02T22:47:14.407Z,98378.16
2023-02-02T22:49:41.883Z,98372.88
2023-02-02T22:52:09.375Z,98369.44
2023-02-02T22:54:36.958Z,98375.78
2023-02-02T22:57:04.574Z,98373.94
2023-02-02T22:59:32.049Z,98381.31
2023-02-02T23:01:59.607Z,98386.63
2023-02-02T23:04:27.075Z,98380.28
2023-02-02T23:06:54.556Z,98390.34
2023-02-02T23:09:22.106Z,98391.91
2023-02-02T23:11:49.613Z,98390.31
2023-02-02T23:14:17.148Z,98402.00
2023-02-02T23:16:44.614Z,98387.97
2023-02-02T23:19:12.093Z,98404.91
2023-02-02T23:21:39.682Z,98390.88
2023-02-02T23:24:07.545Z,98397.22
2023-02-02T23:26:35.149Z,98397.75
2023-02-02T23:29:02.624Z,98400.13
2023-02-02T23:31:30.253Z,98393.78
2023-02-02T23:33:57.831Z,98404.63
2023-02-02T23:36:25.363Z,98406.19
2023-02-02T23:38:52.804Z,98404.34
2023-02-02T23:41:20.779Z,98402.75
2023-02-02T23:43:50.104Z,98397.72
2023-02-02T23:46:18.279Z,98400.66
2023-02-02T23:48:46.331Z,98400.91
2023-02-02T23:51:14.049Z,98395.09
2023-02-02T23:53:43.272Z,98398.00
2023-02-02T23:56:10.756Z,98398.78
2023-02-02T23:58:38.356Z,98396.44
